Time;durP1;ratioP1;P1;durP2;ratioP2;P2;SDS_P1;SDS_P2;PMS_P1;PMS_P2;Temp;Humidity;BMP_temperature;BMP_pressure;BME280_temperature;BME280_humidity;BME280_pressure;Samples;Min_cycle;Max_cycle;Signal;HPM_P1;HPM_P2
2021/05/19 00:02:13;;;;;;;9.23;7.08;;;;;;;13.97;82.77;98600.69;1745310;81;21021;-74
2021/05/19 00:04:39;;;;;;;8.48;6.80;;;;;;;13.95;82.70;98598.73;1752751;81;20960;-73
2021/05/19 00:07:07;;;;;;;7.70;6.33;;;;;;;13.93;82.69;98606.57;1744590;81;20982;-73
2021/05/19 00:09:34;;;;;;;7.83;6.83;;;;;;;13.89;82.66;98605.28;1749340;80;21011;-73
2021/05/19 00:12:00;;;;;;;6.70;6.03;;;;;;;13.86;82.64;98605.66;1751262;80;22204;-73
2021/05/19 00:14:27;;;;;;;6.65;5.97;;;;;;;13.83;82.61;98614.83;1743847;82;20975;-73
2021/05/19 00:16:54;;;;;;;8.00;5.87;;;;;;;13.77;82.58;98610.25;1752491;81;21543;-73
2021/05/19 00:19:20;;;;;;;6.53;5.58;;;;;;;13.73;82.56;98611.64;1751831;81;21625;-73
2021/05/19 00:21:47;;;;;;;7.65;5.95;;;;;;;13.70;82.53;98608.86;1752077;81;20942;-73
2021/05/19 00:24:14;;;;;;;6.87;5.75;;;;;;;13.66;82.52;98608.89;1751240;81;22192;-73
2021/05/19 00:26:40;;;;;;;6.47;5.75;;;;;;;13.62;82.51;98606.30;1740835;80;21064;-73
2021/05/19 00:29:12;;;;;;;7.33;5.15;;;;;;;13.59;82.51;98606.64;1752181;81;20962;-73
2021/05/19 00:31:39;;;;;;;5.72;5.15;;;;;;;13.55;82.48;98610.69;1750081;81;21010;-73
2021/05/19 00:34:05;;;;;;;8.35;5.58;;;;;;;13.51;82.49;98599.28;1751293;80;21079;-73
2021/05/19 00:36:32;;;;;;;6.22;5.62;;;;;;;13.46;82.50;98606.48;1723114;82;21692;-73
2021/05/19 00:38:58;;;;;;;6.67;5.70;;;;;;;13.44;82.46;98600.55;1705915;82;21121;-73
2021/05/19 00:41:25;;;;;;;8.23;5.25;;;;;;;13.40;82.42;98586.80;1738043;82;21038;-72
2021/05/19 00:43:51;;;;;;;5.95;5.37;;;;;;;13.37;82.37;98593.81;1718526;83;21014;-73
2021/05/19 00:46:18;;;;;;;6.70;5.03;;;;;;;13.34;82.34;98596.84;1728162;82;21115;-73
2021/05/19 00:48:46;;;;;;;5.80;4.97;;;;;;;13.31;82.35;98593.20;1739964;80;22527;-73
2021/05/19 00:51:13;;;;;;;7.75;5.03;;;;;;;13.29;82.31;98597.05;1705773;82;21040;-73
2021/05/19 00:53:40;;;;;;;8.13;5.10;;;;;;;13.27;82.23;98593.77;1725171;82;21049;-73
2021/05/19 00:56:07;;;;;;;8.20;4.95;;;;;;;13.25;82.16;98591.80;1735378;82;20970;-73
2021/05/19 00:58:33;;;;;;;9.65;4.90;;;;;;;13.23;82.04;98588.02;1708525;82;21018;-73
2021/05/19 01:01:01;;;;;;;5.00;4.60;;;;;;;13.22;81.85;98591.67;1734159;82;22449;-73
2021/05/19 01:03:37;;;;;;;8.48;4.20;;;;;;;13.14;81.63;98593.05;1734399;81;21548;-73
2021/05/19 01:06:09;;;;;;;8.48;4.58;;;;;;;13.05;81.41;98601.58;1735032;82;20981;-74
2021/05/19 01:11:20;;;;;;;7.12;4.58;;;;;;;12.88;81.10;98605.38;1725879;82;21013;-73
2021/05/19 01:13:47;;;;;;;8.10;4.53;;;;;;;12.85;80.97;98611.05;1724396;82;21614;-73
2021/05/19 01:16:15;;;;;;;7.83;4.83;;;;;;;12.80;80.83;98612.08;1730711;81;21104;-74
2021/05/19 01:18:43;;;;;;;7.53;4.28;;;;;;;12.75;80.73;98606.50;1734554;82;20986;-73
2021/05/19 01:21:10;;;;;;;8.05;4.62;;;;;;;12.68;80.68;98614.84;1731974;81;21001;-73
2021/05/19 01:23:38;;;;;;;4.95;4.45;;;;;;;12.60;80.55;98614.39;1734210;82;20971;-73
2021/05/19 01:26:07;;;;;;;6.62;4.20;;;;;;;12.53;80.44;98622.21;1734406;82;22535;-72
2021/05/19 01:28:34;;;;;;;7.92;4.55;;;;;;;12.46;80.32;98627.09;1734738;82;21093;-73
2021/05/19 01:31:04;;;;;;;8.88;4.67;;;;;;;12.40;80.28;98627.78;1727145;82;21092;-72
2021/05/19 01:33:32;;;;;;;5.60;5.10;;;;;;;12.37;80.36;98635.59;1732742;81;21114;-73
2021/05/19 01:35:59;;;;;;;6.75;4.75;;;;;;;12.35;80.34;98629.62;1721515;82;20970;-72
2021/05/19 01:38:25;;;;;;;7.00;4.87;;;;;;;12.34;80.29;98635.91;1731334;81;21734;-72
2021/05/19 01:40:52;;;;;;;7.45;4.97;;;;;;;12.33;80.38;98630.30;1717057;82;21587;-72
2021/05/19 01:43:18;;;;;;;6.03;5.30;;;;;;;12.34;80.55;98631.95;1708234;82;20998;-72
2021/05/19 01:45:49;;;;;;;9.40;6.67;;;;;;;12.32;80.74;98635.27;1676777;82;21390;-73
2021/05/19 01:48:16;;;;;;;8.93;8.00;;;;;;;12.33;81.12;98640.39;1736062;82;21088;-73
2021/05/19 01:50:43;;;;;;;8.75;7.67;;;;;;;12.32;81.44;98634.77;1718217;83;22591;-72
2021/05/19 01:53:11;;;;;;;11.90;8.48;;;;;;;12.34;81.81;98641.21;1745814;80;21008;-72
2021/05/19 01:55:37;;;;;;;8.95;8.03;;;;;;;12.30;82.02;98645.22;1714551;83;21037;-73
2021/05/19 01:58:05;;;;;;;9.90;8.95;;;;;;;12.30;82.22;98641.25;1702441;83;21089;-72
2021/05/19 02:00:32;;;;;;;10.98;9.78;;;;;;;12.28;82.31;98647.22;1747836;80;21775;-73
2021/05/19 02:03:00;;;;;;;11.70;9.30;;;;;;;12.25;82.45;98645.73;1747380;80;21674;-73
2021/05/19 02:05:28;;;;;;;10.25;9.33;;;;;;;12.23;82.51;98645.09;1733848;82;21456;-72
2021/05/19 02:07:56;;;;;;;14.10;10.55;;;;;;;12.24;82.61;98647.23;1747332;80;21054;-72
2021/05/19 02:10:24;;;;;;;11.43;10.23;;;;;;;12.22;82.67;98653.20;1741770;80;21546;-73
2021/05/19 02:12:52;;;;;;;14.15;11.78;;;;;;;12.21;82.81;98658.18;1746067;81;20973;-72
2021/05/19 02:15:19;;;;;;;12.58;11.28;;;;;;;12.20;82.89;98656.53;1747279;81;21780;-72
2021/05/19 02:17:48;;;;;;;13.68;11.00;;;;;;;12.20;83.01;98655.20;1716522;82;20986;-73
2021/05/19 02:20:18;;;;;;;13.75;12.30;;;;;;;12.21;83.16;98660.33;1747336;80;21080;-72
2021/05/19 02:22:45;;;;;;;16.23;10.70;;;;;;;12.21;83.25;98661.64;1745673;80;21067;-75
2021/05/19 02:25:12;;;;;;;13.10;11.90;;;;;;;12.21;83.33;98669.59;1720504;82;21104;-72
2021/05/19 02:27:39;;;;;;;16.00;13.05;;;;;;;12.22;83.46;98671.23;1735712;82;21795;-73
2021/05/19 02:30:10;;;;;;;13.32;12.03;;;;;;;12.24;83.57;98663.94;1709314;83;21005;-72
2021/05/19 02:32:36;;;;;;;14.58;12.68;;;;;;;12.28;83.65;98667.08;1746651;81;21032;-72
2021/05/19 02:35:05;;;;;;;14.43;12.05;;;;;;;12.30;83.73;98667.22;1746685;81;21036;-72
2021/05/19 02:37:32;;;;;;;15.10;12.43;;;;;;;12.33;83.76;98666.86;1745489;81;21064;-73
2021/05/19 02:39:58;;;;;;;14.55;12.40;;;;;;;12.33;83.74;98666.86;1719072;82;21763;-72
2021/05/19 02:42:25;;;;;;;14.80;12.20;;;;;;;12.35;83.80;98671.98;1741153;81;21096;-74
2021/05/19 02:44:52;;;;;;;15.05;12.65;;;;;;;12.38;83.87;98667.68;1745257;82;21633;-72
2021/05/19 02:47:18;;;;;;;16.05;12.15;;;;;;;12.42;83.87;98676.91;1746371;81;20977;-73
2021/05/19 02:49:46;;;;;;;19.57;12.82;;;;;;;12.44;83.91;98678.88;1742696;81;21073;-73
2021/05/19 02:52:13;;;;;;;14.73;11.93;;;;;;;12.49;83.93;98674.39;1746966;80;21576;-73
2021/05/19 02:54:39;;;;;;;14.05;12.23;;;;;;;12.53;83.96;98680.98;1746665;80;21490;-73
2021/05/19 02:57:07;;;;;;;13.30;11.93;;;;;;;12.56;83.97;98681.97;1746090;81;21080;-72
2021/05/19 02:59:33;;;;;;;13.75;12.35;;;;;;;12.60;83.96;98680.11;1745921;81;21065;-74
2021/05/19 03:02:00;;;;;;;13.15;11.83;;;;;;;12.64;83.92;98678.42;1746496;81;21001;-73
2021/05/19 03:04:26;;;;;;;13.15;11.75;;;;;;;12.67;83.93;98674.11;1748145;81;21750;-73
2021/05/19 03:06:52;;;;;;;13.65;12.25;;;;;;;12.72;83.95;98680.52;1745782;81;21076;-72
2021/05/19 03:09:19;;;;;;;15.00;11.60;;;;;;;12.75;83.89;98673.56;1742009;82;21547;-72
2021/05/19 03:11:46;;;;;;;12.85;11.53;;;;;;;12.77;83.85;98674.20;1742848;81;21040;-76
2021/05/19 03:14:14;;;;;;;13.93;11.73;;;;;;;12.80;83.78;98676.98;1746195;80;21069;-72
2021/05/19 03:16:41;;;;;;;12.50;11.18;;;;;;;12.83;83.71;98680.09;1746719;81;21827;-72
2021/05/19 03:19:09;;;;;;;13.53;11.60;;;;;;;12.86;83.61;98682.41;1746571;81;21006;-72
2021/05/19 03:21:35;;;;;;;15.38;11.75;;;;;;;12.87;83.56;98678.75;1748693;81;21101;-72
2021/05/19 03:24:03;;;;;;;13.08;11.78;;;;;;;12.90;83.55;98682.87;1746840;82;21076;-72
2021/05/19 03:26:30;;;;;;;13.22;11.93;;;;;;;12.95;83.55;98689.80;1746567;81;20977;-72
2021/05/19 03:28:57;;;;;;;13.55;11.85;;;;;;;13.00;83.50;98690.57;1746748;81;21736;-72
2021/05/19 03:31:23;;;;;;;13.95;11.83;;;;;;;13.03;83.50;98692.89;1746494;82;21028;-72
2021/05/19 03:33:50;;;;;;;14.68;12.55;;;;;;;13.07;83.46;98691.02;1746662;82;21041;-73
2021/05/19 03:36:16;;;;;;;13.43;12.05;;;;;;;13.12;83.44;98695.30;1746501;81;21615;-74
2021/05/19 03:38:43;;;;;;;17.73;13.78;;;;;;;13.16;83.42;98688.62;1746262;81;21463;-72
2021/05/19 03:41:11;;;;;;;18.37;15.10;;;;;;;13.23;83.42;98690.59;1746455;82;20961;-72
2021/05/19 03:43:38;;;;;;;21.87;17.00;;;;;;;13.26;83.36;98685.74;1746900;81;20974;-72
2021/05/19 03:46:05;;;;;;;22.87;17.65;;;;;;;13.31;83.25;98687.34;1745814;81;21022;-73
2021/05/19 03:48:32;;;;;;;29.82;19.30;;;;;;;13.34;83.15;98687.50;1746249;80;21182;-72
2021/05/19 03:50:58;;;;;;;35.55;22.42;;;;;;;13.39;83.06;98688.59;1743653;80;21000;-73
2021/05/19 03:53:25;;;;;;;42.98;25.60;;;;;;;13.40;82.84;98684.93;1742797;81;21739;-73
2021/05/19 03:55:51;;;;;;;38.60;23.00;;;;;;;13.40;82.68;98683.60;1747098;82;20985;-72
2021/05/19 03:58:18;;;;;;;38.10;22.87;;;;;;;13.44;82.52;98674.80;1746466;82;20941;-73
2021/05/19 04:00:45;;;;;;;48.30;27.27;;;;;;;13.45;82.14;98677.77;1746135;81;21583;-73
2021/05/19 04:03:12;;;;;;;51.53;29.55;;;;;;;13.44;81.87;98678.78;1743768;80;20961;-74
2021/05/19 04:05:39;;;;;;;56.10;31.42;;;;;;;13.48;81.72;98676.58;1732975;82;22278;-74
2021/05/19 04:08:07;;;;;;;58.35;31.30;;;;;;;13.50;81.53;98681.19;1746956;82;21040;-71
2021/05/19 04:10:35;;;;;;;42.60;26.20;;;;;;;13.52;81.44;98677.38;1746559;82;21044;-73
2021/05/19 04:13:05;;;;;;;34.98;19.85;;;;;;;13.58;81.36;98672.64;1733638;82;21081;-72
2021/05/19 04:15:34;;;;;;;28.75;17.65;;;;;;;13.65;81.19;98677.55;1746627;80;21060;-71
2021/05/19 04:18:00;;;;;;;25.48;18.27;;;;;;;13.68;80.81;98675.84;1747363;82;21819;-71
2021/05/19 04:20:27;;;;;;;32.65;19.27;;;;;;;13.73;80.64;98679.30;1746859;82;20957;-75
2021/05/19 04:22:54;;;;;;;28.35;20.05;;;;;;;13.80;80.45;98678.89;1747012;80;21013;-71
2021/05/19 04:25:20;;;;;;;31.10;22.65;;;;;;;13.85;80.21;98675.67;1742298;81;21013;-72
2021/05/19 04:27:47;;;;;;;32.17;21.05;;;;;;;13.89;79.94;98679.59;1716555;81;21003;-73
2021/05/19 04:30:14;;;;;;;32.53;23.42;;;;;;;13.87;79.52;98682.44;1731223;81;22528;-71
2021/05/19 04:32:40;;;;;;;35.95;25.12;;;;;;;13.86;79.20;98687.42;1717342;83;21482;-70
2021/05/19 04:35:08;;;;;;;38.38;27.13;;;;;;;13.87;79.06;98682.94;1717763;83;20966;-71
2021/05/19 04:37:35;;;;;;;43.63;25.77;;;;;;;13.87;78.90;98689.58;1718219;83;21591;-69
2021/05/19 04:40:04;;;;;;;42.75;26.27;;;;;;;13.90;78.86;98687.39;1716687;82;21027;-70
2021/05/19 04:42:30;;;;;;;44.85;29.90;;;;;;;13.93;78.76;98687.52;1714986;83;22514;-71
2021/05/19 04:44:57;;;;;;;43.28;26.73;;;;;;;13.97;78.69;98682.97;1717134;83;21692;-71
2021/05/19 04:47:23;;;;;;;48.15;26.93;;;;;;;14.00;78.50;98692.42;1715967;83;21007;-71
2021/05/19 04:49:51;;;;;;;63.75;34.25;;;;;;;14.03;78.48;98685.41;1744137;82;20979;-72
2021/05/19 04:52:18;;;;;;;78.45;37.63;;;;;;;14.07;78.24;98685.84;1744426;81;20979;-71
2021/05/19 04:54:44;;;;;;;74.30;35.45;;;;;;;14.07;77.97;98688.50;1716406;83;21807;-74
2021/05/19 04:57:10;;;;;;;76.12;35.52;;;;;;;14.07;77.77;98698.61;1715355;83;21580;-71
2021/05/19 04:59:37;;;;;;;78.07;32.80;;;;;;;14.07;77.54;98697.80;1714827;82;20977;-71
2021/05/19 05:02:06;;;;;;;64.82;28.47;;;;;;;14.09;77.40;98690.46;1740125;82;21104;-71
2021/05/19 05:04:33;;;;;;;38.90;18.12;;;;;;;14.11;77.46;98712.36;1744571;82;21050;-72
2021/05/19 05:07:01;;;;;;;37.38;16.00;;;;;;;14.12;77.30;98714.01;1744597;81;21769;-71
2021/05/19 05:09:28;;;;;;;34.90;15.58;;;;;;;14.09;76.94;98724.50;1744584;82;21497;-71
2021/05/19 05:11:54;;;;;;;22.17;11.00;;;;;;;14.06;76.76;98726.68;1744479;81;21000;-71
2021/05/19 05:14:23;;;;;;;14.53;8.03;;;;;;;14.01;76.48;98728.58;1744634;82;20973;-71
2021/05/19 05:16:49;;;;;;;12.05;5.92;;;;;;;13.99;76.49;98729.23;1744174;80;20977;-72
2021/05/19 05:19:17;;;;;;;11.05;5.50;;;;;;;13.98;76.26;98731.07;1745141;82;22604;-71
2021/05/19 05:21:43;;;;;;;7.53;4.12;;;;;;;13.99;76.17;98733.22;1707361;83;21070;-71
2021/05/19 05:24:10;;;;;;;7.72;4.35;;;;;;;13.99;75.99;98731.42;1769714;80;21516;-71
2021/05/19 05:26:36;;;;;;;7.58;4.60;;;;;;;14.02;75.92;98729.71;1700460;82;21069;-71
2021/05/19 05:29:04;;;;;;;7.22;4.20;;;;;;;14.07;76.01;98729.65;1743969;80;21053;-71
2021/05/19 05:31:30;;;;;;;5.47;4.28;;;;;;;14.15;76.02;98721.59;1743947;80;21773;-71
2021/05/19 05:33:56;;;;;;;9.85;4.75;;;;;;;14.22;75.98;98722.51;1746245;80;21575;-70
2021/05/19 05:36:23;;;;;;;7.80;4.22;;;;;;;14.30;75.76;98722.41;1735236;81;21026;-72
2021/05/19 05:38:50;;;;;;;6.15;4.15;;;;;;;14.38;75.79;98722.78;1743732;80;21097;-72
2021/05/19 05:41:16;;;;;;;6.47;4.45;;;;;;;14.47;75.69;98721.70;1740477;80;21028;-72
2021/05/19 05:43:43;;;;;;;8.28;4.20;;;;;;;14.62;75.78;98721.16;1717365;83;22329;-72
2021/05/19 05:46:09;;;;;;;9.30;4.42;;;;;;;14.76;75.61;98722.12;1716431;83;20990;-72
2021/05/19 05:48:36;;;;;;;8.48;4.35;;;;;;;14.85;75.32;98716.48;1741690;81;21078;-72
2021/05/19 05:51:02;;;;;;;8.88;4.37;;;;;;;14.92;74.92;98723.72;1742151;80;21003;-72
2021/05/19 05:53:30;;;;;;;8.50;4.37;;;;;;;14.92;74.69;98723.20;1741931;80;21055;-72
2021/05/19 05:55:56;;;;;;;6.62;4.08;;;;;;;14.93;74.24;98730.17;1719424;82;21710;-72
2021/05/19 05:58:23;;;;;;;8.23;4.28;;;;;;;14.90;73.96;98722.58;1715881;83;21073;-72
2021/05/19 06:00:49;;;;;;;13.05;3.95;;;;;;;14.93;74.04;98733.33;1726408;83;20961;-72
2021/05/19 06:03:15;;;;;;;8.48;4.03;;;;;;;14.97;73.98;98723.98;1718138;83;21579;-72
2021/05/19 06:05:42;;;;;;;8.00;3.75;;;;;;;15.01;74.00;98733.21;1738448;82;20981;-72
2021/05/19 06:08:09;;;;;;;5.90;4.30;;;;;;;15.07;73.89;98727.14;1744514;82;21775;-72
2021/05/19 06:10:36;;;;;;;8.78;4.62;;;;;;;15.09;73.08;98731.25;1743074;82;21575;-72
2021/05/19 06:13:03;;;;;;;9.65;4.58;;;;;;;15.10;73.05;98732.89;1744324;82;21566;-72
2021/05/19 06:15:29;;;;;;;18.20;7.60;;;;;;;15.15;73.07;98733.64;1741863;82;21439;-72
2021/05/19 06:17:57;;;;;;;16.02;6.80;;;;;;;15.26;72.75;98737.64;1744910;82;21014;-72
2021/05/19 06:20:23;;;;;;;18.87;9.95;;;;;;;15.28;72.41;98733.77;1744006;80;21753;-72
2021/05/19 06:22:50;;;;;;;25.10;12.15;;;;;;;15.30;72.28;98734.39;1708509;83;21486;-72
2021/05/19 06:25:16;;;;;;;22.32;12.28;;;;;;;15.34;72.23;98733.49;1718179;83;21022;-72
2021/05/19 06:27:43;;;;;;;32.78;16.67;;;;;;;15.45;72.13;98743.13;1723831;83;21054;-72
2021/05/19 06:30:12;;;;;;;27.02;14.43;;;;;;;15.59;71.82;98747.20;1712997;83;20978;-72
2021/05/19 06:32:39;;;;;;;28.95;15.03;;;;;;;15.70;71.64;98739.53;1717083;82;21763;-72
2021/05/19 06:35:06;;;;;;;30.80;14.25;;;;;;;15.82;71.30;98729.16;1744115;82;21085;-72
2021/05/19 06:37:33;;;;;;;39.08;20.30;;;;;;;15.92;70.71;98730.99;1739243;81;21105;-72
2021/05/19 06:39:59;;;;;;;47.78;24.95;;;;;;;15.96;70.08;98733.56;1718186;83;21027;-72
2021/05/19 06:42:26;;;;;;;58.15;28.67;;;;;;;16.00;69.85;98736.13;1717967;83;21126;-71
2021/05/19 06:44:52;;;;;;;45.48;26.27;;;;;;;16.00;69.48;98743.30;1718547;83;22284;-72
2021/05/19 06:47:18;;;;;;;49.35;30.45;;;;;;;15.98;69.55;98743.50;1718078;83;20982;-70
2021/05/19 06:49:45;;;;;;;39.15;22.02;;;;;;;16.02;69.47;98746.11;1717299;82;21058;-71
2021/05/19 06:52:12;;;;;;;37.45;19.85;;;;;;;16.07;69.45;98742.02;1707642;84;20990;-72
2021/05/19 06:54:38;;;;;;;34.03;20.10;;;;;;;16.07;68.67;98746.02;1708844;84;21007;-71
2021/05/19 06:57:06;;;;;;;36.20;18.62;;;;;;;16.04;68.20;98751.23;1704050;84;22312;-70
2021/05/19 06:59:33;;;;;;;40.60;26.15;;;;;;;16.05;68.54;98748.05;1701608;83;21600;-72
2021/05/19 07:02:00;;;;;;;39.05;20.97;;;;;;;16.06;68.35;98748.36;1699934;83;21600;-74
2021/05/19 07:04:27;;;;;;;29.32;18.20;;;;;;;16.07;68.42;98746.02;1707073;84;21051;-70
2021/05/19 07:06:57;;;;;;;27.65;16.93;;;;;;;16.11;68.47;98759.23;1724886;83;21027;-71
2021/05/19 07:09:25;;;;;;;20.02;13.70;;;;;;;16.12;68.40;98752.92;1725093;83;21745;-72
2021/05/19 07:11:53;;;;;;;18.90;12.53;;;;;;;16.15;68.31;98757.84;1724792;83;21549;-72
2021/05/19 07:14:21;;;;;;;21.12;12.60;;;;;;;16.18;68.22;98760.92;1725074;83;20991;-72
2021/05/19 07:16:53;;;;;;;18.62;13.90;;;;;;;16.24;68.34;98764.66;1725081;83;21070;-72
2021/05/19 07:19:18;;;;;;;19.10;12.33;;;;;;;16.28;67.89;98767.22;1724400;82;21097;-71
2021/05/19 07:21:45;;;;;;;28.17;15.93;;;;;;;16.28;67.66;98765.38;1725081;83;22929;-71
2021/05/19 07:24:13;;;;;;;28.10;16.75;;;;;;;16.33;67.81;98769.31;1718591;83;21938;-71
2021/05/19 07:26:43;;;;;;;19.37;11.40;;;;;;;16.35;67.68;98769.42;1684801;83;21537;-71
2021/05/19 07:29:10;;;;;;;19.45;12.18;;;;;;;16.41;67.43;98769.97;1701504;83;21076;-71
2021/05/19 07:31:37;;;;;;;19.77;12.03;;;;;;;16.49;67.29;98776.95;1724763;82;21032;-71
2021/05/19 07:34:03;;;;;;;29.37;13.65;;;;;;;16.59;67.48;98777.40;1724862;82;22913;-71
2021/05/19 07:36:30;;;;;;;25.95;12.47;;;;;;;16.70;67.58;98786.21;1724677;83;21473;-71
2021/05/19 07:38:56;;;;;;;21.65;12.35;;;;;;;16.79;67.04;98791.68;1724535;81;21118;-72
2021/05/19 07:41:23;;;;;;;23.60;12.00;;;;;;;16.83;66.80;98792.09;1721615;83;21066;-71
2021/05/19 07:43:51;;;;;;;24.32;12.35;;;;;;;16.85;66.64;98796.70;1725048;82;21675;-71
2021/05/19 07:46:18;;;;;;;19.67;11.53;;;;;;;16.88;66.35;98793.11;1724618;83;21733;-71
2021/05/19 07:48:46;;;;;;;17.98;9.85;;;;;;;16.92;66.12;98796.22;1696179;84;21042;-73
2021/05/19 07:51:14;;;;;;;19.07;11.00;;;;;;;16.90;65.87;98801.45;1707761;82;20939;-73
2021/05/19 07:53:41;;;;;;;25.00;13.78;;;;;;;16.86;65.88;98797.02;1746404;82;20987;-73
2021/05/19 07:56:20;;;;;;;21.30;13.75;;;;;;;16.89;65.47;98801.97;1721352;82;21075;-74
2021/05/19 07:58:47;;;;;;;28.15;13.03;;;;;;;16.95;64.86;98804.33;1716423;83;21741;-73
2021/05/19 08:03:51;;;;;;;21.37;11.15;;;;;;;17.00;64.59;98804.05;1744466;82;20939;-73
2021/05/19 08:06:19;;;;;;;16.95;8.60;;;;;;;16.99;64.95;98806.91;1744271;82;21231;-73
2021/05/19 08:08:46;;;;;;;14.35;5.90;;;;;;;17.04;65.29;98809.27;1739676;80;21050;-76
2021/05/19 08:11:16;;;;;;;9.33;3.85;;;;;;;17.09;65.49;98810.84;1743028;80;22757;-72
2021/05/19 08:13:46;;;;;;;7.92;3.58;;;;;;;17.11;65.64;98810.13;1745067;80;20978;-72
2021/05/19 08:16:13;;;;;;;6.83;3.20;;;;;;;17.17;65.80;98811.14;1743163;80;21389;-73
2021/05/19 08:18:40;;;;;;;5.45;3.55;;;;;;;17.19;66.02;98807.78;1741680;80;21189;-72
2021/05/19 08:21:07;;;;;;;7.55;3.90;;;;;;;17.19;66.26;98809.63;1742223;80;21062;-72
2021/05/19 08:23:34;;;;;;;8.23;3.87;;;;;;;17.23;66.46;98822.86;1744610;81;22252;-71
2021/05/19 08:26:00;;;;;;;18.60;4.37;;;;;;;17.21;66.10;98817.73;1740898;80;21063;-71
2021/05/19 08:28:27;;;;;;;13.78;4.03;;;;;;;17.08;65.90;98823.88;1744359;82;21063;-71
2021/05/19 08:30:53;;;;;;;11.65;4.33;;;;;;;16.95;66.17;98832.33;1742870;80;21074;-71
2021/05/19 08:33:20;;;;;;;8.75;3.30;;;;;;;16.82;66.23;98828.60;1744476;82;20978;-71
2021/05/19 08:35:46;;;;;;;6.55;2.60;;;;;;;16.79;66.65;98826.83;1744204;80;22451;-71
2021/05/19 08:38:14;;;;;;;5.72;2.65;;;;;;;16.81;67.19;98826.95;1744111;80;21034;-72
2021/05/19 08:40:41;;;;;;;4.67;2.45;;;;;;;16.88;67.52;98828.30;1743278;80;21082;-70
2021/05/19 08:43:11;;;;;;;8.18;2.52;;;;;;;16.91;66.96;98823.09;1742264;81;21002;-70
2021/05/19 08:45:40;;;;;;;4.95;2.00;;;;;;;16.88;67.20;98818.45;1742375;82;21052;-70
2021/05/19 08:48:08;;;;;;;9.03;3.90;;;;;;;17.00;67.54;98812.56;1744317;82;22328;-71
2021/05/19 08:50:36;;;;;;;3.65;2.30;;;;;;;17.08;67.64;98812.34;1744166;82;21043;-70
2021/05/19 08:53:08;;;;;;;8.78;5.95;;;;;;;17.09;67.11;98822.84;1742272;80;21061;-71
2021/05/19 08:55:37;;;;;;;9.98;5.67;;;;;;;17.08;67.34;98817.69;1742566;80;21046;-70
2021/05/19 08:58:04;;;;;;;9.70;5.28;;;;;;;17.13;68.07;98821.41;1744253;80;21030;-71
2021/05/19 09:00:33;;;;;;;7.50;2.45;;;;;;;17.29;67.20;98820.73;1741037;80;21782;-69
2021/05/19 09:03:12;;;;;;;5.97;2.20;;;;;;;17.32;66.69;98827.81;1734774;80;20990;-73
2021/05/19 09:05:41;;;;;;;3.80;1.60;;;;;;;17.32;66.71;98829.14;1738547;80;21078;-70
2021/05/19 09:08:16;;;;;;;3.25;1.80;;;;;;;17.23;65.38;98825.53;1743701;80;21009;-69
2021/05/19 09:10:46;;;;;;;5.47;1.57;;;;;;;17.06;65.36;98831.23;1743527;82;21631;-71
2021/05/19 09:13:34;;;;;;;5.78;1.90;;;;;;;16.95;65.31;98835.00;1741287;82;21772;-70
2021/05/19 09:16:02;;;;;;;5.92;2.33;;;;;;;16.81;65.60;98830.14;1742504;82;20989;-69
2021/05/19 09:18:48;;;;;;;2.98;1.85;;;;;;;16.73;65.96;98828.46;1744384;82;21476;-69
2021/05/19 09:21:42;;;;;;;3.87;1.98;;;;;;;16.68;65.64;98833.55;1744569;81;21041;-69
2021/05/19 09:24:22;;;;;;;6.15;3.27;;;;;;;16.58;65.76;98840.55;1744518;82;20975;-70
2021/05/19 09:26:58;;;;;;;5.22;2.75;;;;;;;16.49;66.30;98843.06;1744591;82;21790;-70
2021/05/19 09:29:35;;;;;;;9.95;3.25;;;;;;;16.39;66.83;98847.11;1744464;81;21048;-70
2021/05/19 09:32:04;;;;;;;9.15;4.33;;;;;;;16.25;67.20;98847.55;1744496;81;21504;-70
2021/05/19 09:34:35;;;;;;;8.38;4.80;;;;;;;16.13;67.99;98855.27;1744703;82;21492;-70
2021/05/19 09:37:23;;;;;;;10.03;5.22;;;;;;;16.03;68.30;98859.60;1744522;82;21088;-70
2021/05/19 09:39:55;;;;;;;7.75;4.90;;;;;;;15.94;68.04;98862.09;1744635;82;22354;-69
2021/05/19 09:42:38;;;;;;;11.07;4.73;;;;;;;15.85;68.54;98871.73;1744580;81;20949;-70
2021/05/19 09:45:26;;;;;;;11.63;5.25;;;;;;;15.76;68.76;98872.37;1744589;81;21061;-69
2021/05/19 09:47:54;;;;;;;9.85;4.83;;;;;;;15.67;69.64;98870.36;1744295;81;20989;-69
2021/05/19 09:50:42;;;;;;;11.03;4.90;;;;;;;15.56;70.54;98868.18;1744387;82;21524;-69
2021/05/19 09:53:18;;;;;;;13.58;5.62;;;;;;;15.40;71.48;98859.11;1750952;80;22198;-69
2021/05/19 09:55:56;;;;;;;17.52;7.60;;;;;;;15.16;72.36;98849.16;1753089;81;21547;-69
2021/05/19 09:58:36;;;;;;;21.50;7.58;;;;;;;14.99;73.33;98837.09;1752983;81;21025;-70
2021/05/19 10:01:04;;;;;;;14.40;7.45;;;;;;;14.98;74.22;98848.75;1753000;81;21029;-70
2021/05/19 10:03:36;;;;;;;15.45;7.85;;;;;;;15.03;75.06;98856.15;1753088;81;21104;-69
2021/05/19 10:08:39;;;;;;;10.13;7.33;;;;;;;15.16;76.35;98845.67;1753032;81;21009;-69
2021/05/19 10:11:05;;;;;;;12.33;8.15;;;;;;;15.24;76.76;98848.19;1727474;81;21546;-69
2021/05/19 10:13:33;;;;;;;12.18;8.58;;;;;;;15.35;77.00;98849.05;1752741;81;20989;-70
2021/05/19 10:16:02;;;;;;;12.78;9.00;;;;;;;15.47;77.06;98848.03;1753064;81;21054;-69
2021/05/19 10:18:32;;;;;;;16.62;10.45;;;;;;;15.59;77.19;98849.16;1753124;81;21849;-69
2021/05/19 10:21:00;;;;;;;23.42;15.90;;;;;;;15.66;77.31;98847.93;1752616;81;21029;-69
2021/05/19 10:23:34;;;;;;;25.25;17.90;;;;;;;15.76;77.42;98847.09;1751220;81;21040;-70
2021/05/19 10:26:12;;;;;;;22.80;17.48;;;;;;;15.91;77.60;98854.98;1736986;82;21058;-70
2021/05/19 10:28:47;;;;;;;20.45;14.47;;;;;;;16.07;77.72;98848.04;1763087;81;27440;-69
2021/05/19 10:31:40;;;;;;;21.52;13.38;;;;;;;16.28;77.96;98845.81;1763117;81;21783;-69
2021/05/19 10:34:01;;;;;;;19.37;13.43;;;;;;;16.60;78.05;98842.53;1721758;82;20974;-70
2021/05/19 10:36:31;;;;;;;15.83;11.60;;;;;;;17.00;77.86;98847.23;1731950;82;20961;-69
2021/05/19 10:39:16;;;;;;;15.18;10.72;;;;;;;17.39;76.48;98846.52;1731793;82;21369;-69
2021/05/19 10:41:53;;;;;;;18.55;13.08;;;;;;;17.79;74.84;98847.40;1731639;82;21097;-69
2021/05/19 10:44:23;;;;;;;19.10;12.50;;;;;;;18.23;74.03;98837.89;1731856;82;22919;-69
2021/05/19 10:47:05;;;;;;;19.75;12.88;;;;;;;18.70;72.95;98836.77;1731948;82;20990;-70
2021/05/19 10:50:00;;;;;;;;;;;;;;;19.04;70.94;98838.80;1734563;82;21514;-71
2021/05/19 10:58:02;;;;;;;13.28;10.63;;;;;;;19.48;65.82;98830.38;1744521;82;22455;-70
2021/05/19 11:00:27;;;;;;;18.12;11.53;;;;;;;19.56;64.39;98833.65;1743830;81;21053;-70
2021/05/19 11:03:03;;;;;;;15.25;12.03;;;;;;;19.56;64.41;98831.49;1744424;82;21036;-70
2021/05/19 11:05:35;;;;;;;14.95;10.45;;;;;;;19.63;64.65;98829.59;1744624;82;21452;-70
2021/05/19 11:08:13;;;;;;;;;;;;;;;19.83;65.25;98822.22;1747015;82;21061;-70
2021/05/19 11:10:46;;;;;;;10.55;8.85;;;;;;;20.15;65.06;98826.14;1744319;82;21753;-70
2021/05/19 11:13:11;;;;;;;13.78;9.43;;;;;;;20.41;62.10;98824.54;1744251;81;20981;-70
2021/05/19 11:18:59;;;;;;;13.45;8.60;;;;;;;20.52;58.86;98826.50;1742622;82;21564;-71
2021/05/19 11:21:02;;;;;;;14.78;8.85;;;;;;;20.62;60.09;98822.48;1712320;82;20991;-70
2021/05/19 11:23:29;;;;;;;12.05;8.30;;;;;;;20.89;59.58;98817.61;1744443;82;21769;-70
2021/05/19 11:26:14;;;;;;;11.10;9.05;;;;;;;21.04;58.67;98819.39;1744458;82;21568;-70
2021/05/19 11:28:41;;;;;;;14.45;9.73;;;;;;;21.15;58.25;98823.45;1744451;81;21484;-71
2021/05/19 11:31:16;;;;;;;16.82;9.53;;;;;;;21.47;58.63;98821.88;1744474;81;21548;-71
2021/05/19 11:33:58;;;;;;;12.60;9.75;;;;;;;21.70;58.13;98817.88;1745619;82;21001;-71
2021/05/19 11:36:41;;;;;;;12.23;9.08;;;;;;;21.99;58.48;98824.74;1730567;83;21716;-71
2021/05/19 11:39:42;;;;;;;9.15;8.05;;;;;;;22.34;56.74;98816.70;1745253;82;20978;-71
2021/05/19 11:42:28;;;;;;;13.10;7.87;;;;;;;22.50;55.09;98820.55;1744505;81;21005;-71
2021/05/19 11:45:06;;;;;;;14.43;8.10;;;;;;;22.76;55.49;98817.30;1715426;82;21041;-71
2021/05/19 11:47:36;;;;;;;10.63;7.87;;;;;;;22.91;53.19;98817.37;1744557;81;20967;-71
2021/05/19 11:50:25;;;;;;;13.80;8.00;;;;;;;22.90;52.02;98818.43;1744140;81;21743;-71